Time;durP1;ratioP1;P1;durP2;ratioP2;P2;SDS_P1;SDS_P2;PMS_P1;PMS_P2;Temp;Humidity;BMP_temperature;BMP_pressure;BME280_temperature;BME280_humidity;BME280_pressure;Samples;Min_cycle;Max_cycle;Signal;HPM_P1;HPM_P2
2022/10/27 00:02:17;;;;;;;0.50;0.40;;;;;;;20.19;46.66;100348.72;5048012;28;20031;-88
2022/10/27 00:04:43;;;;;;;0.25;0.25;;;;;;;20.14;46.59;100348.66;5066114;28;20465;-88
2022/10/27 00:07:09;;;;;;;0.30;0.30;;;;;;;20.18;46.74;100363.38;5064504;28;20295;-88
2022/10/27 00:09:34;;;;;;;0.30;0.30;;;;;;;20.19;46.58;100364.19;5066533;28;20029;-88
2022/10/27 00:12:00;;;;;;;0.50;0.50;;;;;;;20.16;46.71;100365.53;5067997;28;20465;-88
2022/10/27 00:14:26;;;;;;;0.50;0.40;;;;;;;20.17;46.63;100369.06;5045784;28;20032;-88
2022/10/27 00:16:53;;;;;;;0.40;0.40;;;;;;;20.18;46.70;100367.97;5067901;28;20484;-88
2022/10/27 00:19:19;;;;;;;0.30;0.30;;;;;;;20.17;46.61;100374.50;5064193;28;20051;-88
2022/10/27 00:21:45;;;;;;;0.30;0.30;;;;;;;20.18;46.61;100378.81;5066858;28;20504;-87
2022/10/27 00:24:10;;;;;;;0.38;0.38;;;;;;;20.18;46.62;100376.97;5066864;28;20103;-87
2022/10/27 00:26:36;;;;;;;0.60;0.45;;;;;;;20.17;46.53;100374.50;5060694;28;20024;-88
2022/10/27 00:29:02;;;;;;;0.30;0.30;;;;;;;20.18;46.38;100362.53;5067441;28;20032;-88
2022/10/27 00:31:27;;;;;;;0.30;0.30;;;;;;;20.16;46.53;100372.84;5058724;28;20064;-88
2022/10/27 00:33:53;;;;;;;0.30;0.30;;;;;;;20.17;46.43;100374.50;5067295;28;20044;-88
2022/10/27 00:36:22;;;;;;;0.40;0.30;;;;;;;20.16;46.51;100376.41;5065399;28;20102;-88
2022/10/27 00:38:48;;;;;;;0.35;0.30;;;;;;;20.16;46.34;100375.56;5064778;28;20393;-87
2022/10/27 00:41:39;;;;;;;0.35;0.35;;;;;;;20.15;46.49;100376.66;5067303;28;20024;-87
2022/10/27 00:44:31;;;;;;;0.40;0.40;;;;;;;20.18;46.45;100376.97;5061404;28;20020;-88
2022/10/27 00:47:16;;;;;;;0.30;0.30;;;;;;;20.17;46.32;100382.63;5065572;28;20017;-88
2022/10/27 00:49:55;;;;;;;0.43;0.43;;;;;;;20.15;46.44;100382.06;5044308;28;20463;-88
2022/10/27 00:52:39;;;;;;;1.27;0.40;;;;;;;20.13;46.49;100385.03;5050761;28;20028;-88
2022/10/27 00:55:21;;;;;;;0.40;0.40;;;;;;;20.15;46.27;100379.34;5064133;28;20024;-88
2022/10/27 00:57:48;;;;;;;0.40;0.40;;;;;;;20.12;46.42;100383.38;5065783;28;20408;-88
2022/10/27 01:00:14;;;;;;;0.40;0.40;;;;;;;20.13;46.48;100387.75;5066533;28;20063;-88
2022/10/27 01:02:40;;;;;;;0.40;0.40;;;;;;;20.13;46.36;100384.19;5060059;28;20626;-88
2022/10/27 01:05:22;;;;;;;0.40;0.40;;;;;;;20.13;46.30;100393.16;5048907;28;20040;-88
2022/10/27 01:07:48;;;;;;;0.50;0.50;;;;;;;20.11;46.33;100394.47;5030913;28;20469;-88
2022/10/27 01:10:14;;;;;;;0.40;0.40;;;;;;;20.13;46.34;100395.03;5049223;28;20036;-88
2022/10/27 01:12:39;;;;;;;0.40;0.40;;;;;;;20.13;46.24;100397.75;5061425;28;20078;-87
2022/10/27 01:15:06;;;;;;;0.30;0.30;;;;;;;20.13;46.33;100392.31;5045496;28;20040;-87
2022/10/27 01:18:01;;;;;;;0.32;0.32;;;;;;;20.12;46.29;100399.66;5066828;28;20366;-88
2022/10/27 01:20:47;;;;;;;0.30;0.30;;;;;;;20.13;46.15;100397.75;5047423;28;20052;-88
2022/10/27 01:23:31;;;;;;;0.30;0.30;;;;;;;20.12;46.37;100401.56;5065062;28;20025;-88
2022/10/27 01:25:56;;;;;;;0.35;0.35;;;;;;;20.12;46.29;100402.38;5047014;28;20039;-88
2022/10/27 01:29:01;;;;;;;0.30;0.30;;;;;;;20.13;46.26;100414.03;5065709;28;20040;-88
2022/10/27 01:31:31;;;;;;;0.40;0.40;;;;;;;20.06;46.18;100397.97;5010282;28;20036;-88
2022/10/27 01:34:11;;;;;;;0.32;0.30;;;;;;;20.08;46.24;100402.06;5032676;28;20473;-89
2022/10/27 01:36:44;;;;;;;0.32;0.32;;;;;;;20.11;46.23;100410.75;5047634;28;20386;-88
2022/10/27 01:39:35;;;;;;;0.30;0.30;;;;;;;20.11;46.40;100416.19;5047538;28;20020;-88
2022/10/27 01:42:16;;;;;;;0.40;0.40;;;;;;;20.12;46.12;100407.78;5051593;28;20040;-88
2022/10/27 01:44:44;;;;;;;0.40;0.40;;;;;;;20.12;46.20;100407.78;5045577;28;20029;-88
2022/10/27 01:47:10;;;;;;;0.30;0.30;;;;;;;20.08;46.30;100404.75;5066591;28;20020;-88
2022/10/27 01:49:36;;;;;;;0.45;0.40;;;;;;;20.10;46.24;100419.97;5031704;28;20033;-88
2022/10/27 01:52:06;;;;;;;1.00;0.30;;;;;;;20.10;46.07;100414.56;5066268;28;20020;-88
2022/10/27 01:54:32;;;;;;;0.40;0.40;;;;;;;20.07;46.18;100416.69;5066179;28;20029;-89
2022/10/27 01:57:43;;;;;;;0.40;0.40;;;;;;;20.10;46.20;100414.56;5048794;28;20102;-88
2022/10/27 02:00:09;;;;;;;0.30;0.30;;;;;;;20.10;45.99;100414.56;5065495;28;20101;-88
2022/10/27 02:03:02;;;;;;;0.40;0.40;;;;;;;20.08;46.15;100429.19;5049140;28;20477;-88
2022/10/27 02:05:33;;;;;;;0.50;0.40;;;;;;;20.09;46.23;100430.00;5068756;28;20101;-88
2022/10/27 02:08:13;;;;;;;0.30;0.30;;;;;;;20.07;46.22;100421.28;5065383;28;20039;-88
2022/10/27 02:10:57;;;;;;;0.30;0.30;;;;;;;20.04;46.11;100425.34;5050270;28;20373;-88
2022/10/27 02:13:22;;;;;;;0.30;0.30;;;;;;;20.10;46.14;100428.13;5051032;28;20089;-88
2022/10/27 02:16:10;;;;;;;0.30;0.30;;;;;;;20.07;45.97;100422.13;5051338;28;20477;-88
2022/10/27 02:18:38;;;;;;;0.30;0.30;;;;;;;20.04;46.04;100432.63;5049015;28;20045;-88
2022/10/27 02:21:08;;;;;;;0.30;0.30;;;;;;;20.03;46.14;100426.38;5034499;28;20127;-88
2022/10/27 02:23:33;;;;;;;0.40;0.40;;;;;;;20.06;46.02;100439.47;5051886;28;20423;-88
2022/10/27 02:26:16;;;;;;;0.38;0.38;;;;;;;20.06;45.90;100436.75;5047124;28;20025;-89
2022/10/27 02:28:55;;;;;;;1.48;0.40;;;;;;;20.05;46.14;100423.44;5034881;28;20052;-88
2022/10/27 02:31:21;;;;;;;0.40;0.40;;;;;;;20.05;46.06;100428.84;5047768;28;20023;-88
2022/10/27 02:33:47;;;;;;;0.30;0.30;;;;;;;20.04;46.14;100421.78;5068964;28;20165;-89
2022/10/27 02:36:12;;;;;;;0.30;0.30;;;;;;;20.04;46.18;100422.63;5050364;28;20490;-88
2022/10/27 02:38:38;;;;;;;0.30;0.30;;;;;;;20.04;46.24;100425.34;5047895;28;20028;-88
2022/10/27 02:41:04;;;;;;;0.30;0.30;;;;;;;20.03;45.99;100426.38;5069406;28;20040;-88
2022/10/27 02:43:29;;;;;;;0.30;0.30;;;;;;;20.03;46.18;100433.72;5064179;28;20040;-89
2022/10/27 02:45:55;;;;;;;0.73;0.30;;;;;;;20.03;46.05;100445.38;5069367;28;20154;-88
2022/10/27 02:48:21;;;;;;;0.30;0.30;;;;;;;20.03;46.08;100439.97;5068027;28;20085;-89
2022/10/27 02:50:46;;;;;;;0.30;0.30;;;;;;;20.03;46.06;100448.09;5066696;28;20020;-89
2022/10/27 02:53:12;;;;;;;0.30;0.30;;;;;;;20.03;46.10;100448.09;5068923;28;20200;-88
2022/10/27 02:55:37;;;;;;;0.30;0.30;;;;;;;20.03;46.10;100469.78;5062989;28;20477;-88
2022/10/27 02:58:03;;;;;;;0.30;0.30;;;;;;;20.01;46.12;100455.66;5067326;28;20120;-88
2022/10/27 03:00:29;;;;;;;0.20;0.20;;;;;;;20.02;46.00;100451.91;5066244;28;20037;-88
2022/10/27 03:02:54;;;;;;;1.38;0.30;;;;;;;20.04;46.12;100466.03;5065902;28;20033;-88
2022/10/27 03:05:20;;;;;;;0.40;0.30;;;;;;;20.03;45.95;100463.56;5068604;28;20100;-88
2022/10/27 03:07:45;;;;;;;0.50;0.40;;;;;;;20.03;45.97;100466.28;5064363;28;20112;-88
2022/10/27 03:10:11;;;;;;;0.30;0.30;;;;;;;20.03;46.10;100467.09;5067227;28;20029;-88
2022/10/27 03:12:37;;;;;;;0.30;0.30;;;;;;;20.02;45.82;100476.31;5065319;28;20048;-88
2022/10/27 03:15:03;;;;;;;0.30;0.30;;;;;;;20.00;46.00;100470.28;5030449;28;20064;-88
2022/10/27 03:17:28;;;;;;;0.40;0.20;;;;;;;20.01;45.98;100482.78;5068539;28;20032;-88
2022/10/27 03:19:54;;;;;;;0.20;0.20;;;;;;;19.99;45.95;100478.66;5065469;28;20025;-89
2022/10/27 03:22:19;;;;;;;0.30;0.30;;;;;;;20.01;45.98;100485.50;5067999;28;20031;-88
2022/10/27 03:24:45;;;;;;;0.30;0.30;;;;;;;20.00;46.13;100494.69;5067292;28;20461;-89
2022/10/27 03:27:10;;;;;;;1.27;0.38;;;;;;;20.00;45.93;100492.00;5066628;28;20083;-88
2022/10/27 03:29:36;;;;;;;0.30;0.30;;;;;;;20.00;45.99;100502.84;5068129;28;20473;-89
2022/10/27 03:32:02;;;;;;;0.55;0.40;;;;;;;19.99;46.02;100506.63;5061335;28;20205;-88
2022/10/27 03:34:27;;;;;;;0.32;0.32;;;;;;;19.97;46.00;100505.22;5065851;28;20492;-88
2022/10/27 03:36:53;;;;;;;0.22;0.22;;;;;;;19.99;45.99;100509.34;5065797;28;20031;-88
2022/10/27 03:39:19;;;;;;;0.40;0.40;;;;;;;19.99;46.13;100503.94;5066355;28;20151;-89
2022/10/27 03:41:44;;;;;;;0.40;0.40;;;;;;;19.98;46.07;100510.41;5068457;28;20121;-89
2022/10/27 03:44:10;;;;;;;0.93;0.40;;;;;;;19.98;45.88;100509.59;5061981;28;20059;-89
2022/10/27 03:46:35;;;;;;;0.30;0.30;;;;;;;19.95;46.10;100505.47;5066771;28;20063;-88
2022/10/27 03:49:01;;;;;;;0.82;0.30;;;;;;;19.98;45.97;100507.69;5062509;28;20465;-89
2022/10/27 03:51:27;;;;;;;0.40;0.40;;;;;;;19.95;45.69;100505.47;5065149;28;20119;-89
2022/10/27 03:53:53;;;;;;;1.55;0.30;;;;;;;19.97;45.94;100500.66;5050640;28;20774;-88
2022/10/27 03:56:18;;;;;;;1.13;0.30;;;;;;;19.98;45.88;100496.84;5064185;28;20111;-88
2022/10/27 03:58:44;;;;;;;1.58;0.50;;;;;;;19.97;46.01;100499.81;5050133;28;20098;-88
2022/10/27 04:01:10;;;;;;;0.30;0.30;;;;;;;19.93;45.87;100504.91;5045184;28;20035;-88
2022/10/27 04:03:36;;;;;;;0.20;0.20;;;;;;;19.96;46.11;100512.56;5046647;28;20103;-88
2022/10/27 04:06:02;;;;;;;0.30;0.30;;;;;;;19.95;46.01;100508.19;5068217;28;20127;-88
2022/10/27 04:08:27;;;;;;;0.60;0.50;;;;;;;19.96;45.94;100509.84;5062171;28;20063;-89
2022/10/27 04:10:53;;;;;;;0.30;0.30;;;;;;;19.95;46.03;100516.31;5068262;28;20519;-88
2022/10/27 04:13:18;;;;;;;0.30;0.30;;;;;;;19.96;46.15;100515.25;5047074;28;20127;-88
2022/10/27 04:15:44;;;;;;;0.30;0.30;;;;;;;19.96;45.83;100519.88;5066207;28;20035;-89
2022/10/27 04:18:09;;;;;;;0.30;0.30;;;;;;;19.95;45.96;100516.31;5049492;28;20033;-89
2022/10/27 04:20:35;;;;;;;0.30;0.30;;;;;;;19.96;45.90;100522.59;5025990;28;20032;-88
2022/10/27 04:23:01;;;;;;;0.30;0.30;;;;;;;19.94;45.94;100522.84;5033018;28;20472;-88
2022/10/27 04:25:27;;;;;;;0.30;0.30;;;;;;;19.92;45.92;100519.53;5065640;28;20445;-88
2022/10/27 04:28:06;;;;;;;0.30;0.30;;;;;;;19.94;46.11;100528.25;5066710;28;20041;-89
2022/10/27 04:30:32;;;;;;;0.40;0.40;;;;;;;19.93;45.80;100532.03;5048596;28;20554;-88
2022/10/27 04:32:57;;;;;;;0.30;0.30;;;;;;;19.93;45.78;100526.59;5063956;28;20020;-88
2022/10/27 04:35:23;;;;;;;0.40;0.40;;;;;;;19.94;45.88;100520.13;5065547;28;20031;-88
2022/10/27 04:37:48;;;;;;;0.30;0.30;;;;;;;19.91;45.82;100514.38;5060173;28;20362;-89
2022/10/27 04:40:14;;;;;;;0.30;0.30;;;;;;;19.95;45.74;100527.16;5067420;28;20494;-88
2022/10/27 04:42:46;;;;;;;0.40;0.40;;;;;;;19.95;45.96;100527.16;5065193;28;20136;-88
2022/10/27 04:45:12;;;;;;;0.40;0.40;;;;;;;19.93;46.05;100529.31;5065105;28;20473;-89
2022/10/27 04:47:38;;;;;;;0.40;0.40;;;;;;;19.92;45.88;100533.09;5067516;28;20024;-88
2022/10/27 04:50:04;;;;;;;0.30;0.30;;;;;;;19.93;45.85;100537.44;5061478;28;20081;-88
2022/10/27 04:52:30;;;;;;;0.30;0.30;;;;;;;19.92;46.05;100546.66;5065274;28;20021;-88
2022/10/27 04:54:56;;;;;;;0.30;0.30;;;;;;;19.93;45.81;100539.34;5062950;28;20030;-88
2022/10/27 04:57:21;;;;;;;0.40;0.40;;;;;;;19.91;45.85;100534.16;5066868;28;20039;-88
2022/10/27 04:59:47;;;;;;;0.30;0.30;;;;;;;19.91;45.89;100536.06;5047460;28;20035;-88
2022/10/27 05:02:13;;;;;;;0.30;0.30;;;;;;;19.92;45.88;100530.41;5062778;28;20499;-89
2022/10/27 05:04:38;;;;;;;0.40;0.40;;;;;;;19.92;45.70;100527.69;5066173;28;20145;-88
2022/10/27 05:07:06;;;;;;;0.30;0.30;;;;;;;19.91;45.93;100530.63;5062578;28;20032;-89
2022/10/27 05:09:32;;;;;;;2.28;0.50;;;;;;;19.92;45.96;100530.41;5065584;28;20044;-88
2022/10/27 05:11:57;;;;;;;0.40;0.40;;;;;;;19.91;45.86;100534.16;5049248;28;20029;-88
2022/10/27 05:14:23;;;;;;;0.40;0.40;;;;;;;19.92;45.99;100533.09;5059195;28;20075;-89
2022/10/27 05:16:48;;;;;;;1.48;0.32;;;;;;;19.92;45.92;100538.53;5049331;28;20025;-88
2022/10/27 05:19:14;;;;;;;0.22;0.22;;;;;;;19.82;45.84;100535.66;5062702;28;20021;-88
2022/10/27 05:21:39;;;;;;;0.35;0.35;;;;;;;19.88;45.86;100540.06;5065397;28;20381;-89
2022/10/27 05:24:05;;;;;;;0.55;0.55;;;;;;;19.89;45.97;100544.44;5049085;28;20099;-88
2022/10/27 05:26:31;;;;;;;0.70;0.50;;;;;;;19.90;46.03;100556.91;5061111;28;20539;-88
2022/10/27 05:28:56;;;;;;;0.40;0.40;;;;;;;19.85;45.78;100552.25;5070786;28;20029;-88
2022/10/27 05:31:22;;;;;;;0.30;0.30;;;;;;;19.88;45.91;100564.47;5066996;28;20016;-89
2022/10/27 05:33:47;;;;;;;0.40;0.40;;;;;;;19.88;45.92;100562.59;5070024;28;20017;-88
2022/10/27 05:36:13;;;;;;;0.50;0.40;;;;;;;19.76;45.77;100550.19;5069813;28;20503;-89
2022/10/27 05:38:39;;;;;;;0.45;0.40;;;;;;;19.90;45.77;100559.63;5049206;28;20028;-88
2022/10/27 05:41:08;;;;;;;0.40;0.40;;;;;;;19.84;45.98;100558.72;5070700;28;20119;-89
2022/10/27 05:43:34;;;;;;;0.30;0.30;;;;;;;19.88;45.91;100564.47;5048554;28;20443;-88
2022/10/27 05:45:59;;;;;;;0.40;0.40;;;;;;;19.88;45.88;100568.00;5070515;28;20029;-88
2022/10/27 05:48:25;;;;;;;1.13;0.57;;;;;;;19.88;45.80;100569.91;5069525;28;20064;-88
2022/10/27 05:50:54;;;;;;;0.43;0.43;;;;;;;19.87;45.78;100571.00;5068808;28;20120;-88
2022/10/27 05:53:20;;;;;;;0.40;0.40;;;;;;;19.87;45.84;100571.81;5070330;28;20429;-88
2022/10/27 05:55:45;;;;;;;0.38;0.38;;;;;;;19.88;45.86;100576.16;5030233;28;20103;-88
2022/10/27 05:58:11;;;;;;;0.30;0.30;;;;;;;19.88;45.84;100580.75;5068814;28;20020;-88
2022/10/27 06:00:37;;;;;;;0.30;0.30;;;;;;;19.88;45.75;100587.00;5048229;28;20039;-88
2022/10/27 06:03:04;;;;;;;0.30;0.30;;;;;;;19.86;45.95;100585.59;5051801;28;20021;-88
2022/10/27 06:05:30;;;;;;;0.40;0.40;;;;;;;19.86;45.71;100588.31;5052587;28;20047;-88
2022/10/27 06:07:58;;;;;;;1.40;0.40;;;;;;;19.86;45.74;100591.84;5066104;28;20024;-89
2022/10/27 06:10:24;;;;;;;0.30;0.30;;;;;;;19.85;45.78;100592.09;5068841;28;20037;-89
2022/10/27 06:12:49;;;;;;;0.35;0.30;;;;;;;19.86;45.86;100589.13;5048960;28;20464;-87
2022/10/27 06:15:15;;;;;;;0.50;0.50;;;;;;;19.85;45.73;100587.50;5065587;28;20469;-88
2022/10/27 06:17:40;;;;;;;0.30;0.30;;;;;;;19.85;45.75;100595.66;5035124;28;20020;-88
2022/10/27 06:20:06;;;;;;;0.30;0.30;;;;;;;19.86;45.72;100601.88;5029678;28;20036;-89
2022/10/27 06:22:32;;;;;;;0.30;0.30;;;;;;;19.83;45.94;100603.22;5049851;28;20036;-89
2022/10/27 06:24:58;;;;;;;0.95;0.43;;;;;;;19.83;45.90;100600.50;5065781;28;20033;-88
2022/10/27 06:27:23;;;;;;;0.30;0.30;;;;;;;19.85;45.83;100605.66;5067514;28;20474;-88
2022/10/27 06:29:49;;;;;;;0.40;0.40;;;;;;;19.82;45.88;100611.59;5069391;28;20048;-88
2022/10/27 06:32:14;;;;;;;0.30;0.30;;;;;;;19.81;45.96;100607.22;5063038;28;20214;-88
2022/10/27 06:34:40;;;;;;;0.50;0.50;;;;;;;19.83;45.87;100615.91;5067611;28;20063;-88
2022/10/27 06:37:06;;;;;;;0.40;0.40;;;;;;;19.81;45.91;100608.03;5065513;28;20446;-88
2022/10/27 06:39:31;;;;;;;0.32;0.30;;;;;;;19.81;45.96;100599.91;5068168;28;20086;-89
2022/10/27 06:41:57;;;;;;;0.50;0.50;;;;;;;19.76;45.81;100588.13;5069286;28;20056;-88
2022/10/27 06:44:23;;;;;;;0.32;0.32;;;;;;;19.81;45.69;100593.66;5061795;28;20036;-88
2022/10/27 06:46:49;;;;;;;0.40;0.40;;;;;;;19.82;46.04;100598.84;5051068;28;20021;-88
2022/10/27 06:49:14;;;;;;;0.73;0.57;;;;;;;19.82;45.99;100598.84;5062380;28;20139;-89
2022/10/27 06:51:40;;;;;;;0.50;0.40;;;;;;;19.83;45.89;100605.06;5068902;28;20020;-89
2022/10/27 06:54:06;;;;;;;1.42;0.70;;;;;;;19.83;45.88;100605.91;5069219;28;20072;-88
2022/10/27 06:56:33;;;;;;;0.63;0.50;;;;;;;19.84;45.90;100614.88;5064411;28;20103;-88
2022/10/27 06:58:59;;;;;;;0.50;0.50;;;;;;;19.82;45.87;100619.72;5051563;28;20500;-88
2022/10/27 07:01:25;;;;;;;0.50;0.50;;;;;;;19.81;45.92;100609.94;5063178;28;20447;-88
2022/10/27 07:03:51;;;;;;;0.50;0.50;;;;;;;19.83;45.84;100618.63;5067078;28;20024;-88
2022/10/27 07:06:16;;;;;;;0.52;0.52;;;;;;;19.69;45.75;100605.34;5067307;28;20385;-88
2022/10/27 07:08:42;;;;;;;0.57;0.57;;;;;;;19.81;45.88;100623.47;5063687;28;20028;-88
2022/10/27 07:11:08;;;;;;;0.50;0.50;;;;;;;19.81;45.84;100613.44;5068801;28;20016;-88
2022/10/27 07:13:35;;;;;;;0.65;0.50;;;;;;;19.80;45.89;100616.41;5063743;28;20390;-88
2022/10/27 07:16:00;;;;;;;0.30;0.30;;;;;;;19.75;45.96;100616.31;5067457;28;20035;-88
2022/10/27 07:18:26;;;;;;;0.70;0.60;;;;;;;19.77;45.88;100627.75;5066196;28;20111;-89
2022/10/27 07:20:52;;;;;;;0.93;0.85;;;;;;;19.80;45.90;100629.97;5062260;28;20107;-88
2022/10/27 07:23:21;;;;;;;0.60;0.60;;;;;;;19.81;45.71;100629.72;5050025;28;20461;-88
2022/10/27 07:25:49;;;;;;;0.82;0.55;;;;;;;19.79;45.86;100631.03;5047608;28;20534;-88
2022/10/27 07:28:16;;;;;;;0.60;0.60;;;;;;;19.64;45.85;100612.56;5067437;28;20044;-89
2022/10/27 07:30:43;;;;;;;0.45;0.45;;;;;;;19.79;45.84;100636.47;5064725;28;20020;-88
2022/10/27 07:33:09;;;;;;;1.00;0.60;;;;;;;19.79;45.77;100639.19;5066511;28;20039;-88
2022/10/27 07:35:34;;;;;;;0.68;0.60;;;;;;;19.80;45.82;100646.22;5068600;28;20322;-88
2022/10/27 07:38:00;;;;;;;0.60;0.60;;;;;;;19.80;45.82;100643.53;5041904;28;20488;-88
2022/10/27 07:40:26;;;;;;;0.57;0.57;;;;;;;19.80;45.93;100649.78;5068221;28;20056;-88
2022/10/27 07:42:55;;;;;;;0.50;0.50;;;;;;;19.78;45.68;100646.50;5064458;28;20048;-89
2022/10/27 07:45:22;;;;;;;0.50;0.50;;;;;;;19.78;45.88;100651.09;5049921;28;20028;-88
2022/10/27 07:47:52;;;;;;;0.60;0.60;;;;;;;19.78;45.99;100653.78;5068303;28;20031;-88
2022/10/27 07:50:19;;;;;;;0.50;0.50;;;;;;;19.80;45.88;100648.94;5042196;28;20033;-89
2022/10/27 07:52:45;;;;;;;0.45;0.45;;;;;;;19.75;45.85;100638.00;5066672;28;20093;-89
2022/10/27 07:55:13;;;;;;;0.57;0.55;;;;;;;19.72;46.11;100646.63;5048374;28;20051;-88
2022/10/27 07:57:39;;;;;;;0.50;0.50;;;;;;;19.68;46.04;100630.81;5047527;28;20200;-88
2022/10/27 08:00:05;;;;;;;0.50;0.50;;;;;;;19.78;46.06;100645.66;5067944;28;20039;-89
2022/10/27 08:02:31;;;;;;;0.60;0.60;;;;;;;19.76;45.99;100651.31;5063164;28;20172;-88
2022/10/27 08:04:56;;;;;;;0.55;0.55;;;;;;;19.77;45.96;100638.59;5067990;28;20457;-88
2022/10/27 08:07:22;;;;;;;0.60;0.60;;;;;;;19.79;45.92;100644.59;5061577;28;20024;-89
2022/10/27 08:09:48;;;;;;;0.60;0.60;;;;;;;19.76;45.89;100654.03;5067277;28;20037;-88
2022/10/27 08:12:14;;;;;;;0.75;0.60;;;;;;;19.77;46.18;100654.88;5067182;28;20028;-89
2022/10/27 08:14:39;;;;;;;0.85;0.60;;;;;;;19.76;45.91;100661.34;5064190;28;20024;-88
2022/10/27 08:17:08;;;;;;;0.60;0.60;;;;;;;19.73;45.88;100659.94;5067835;28;20052;-88
2022/10/27 08:19:34;;;;;;;0.60;0.60;;;;;;;19.78;46.13;100672.78;5061439;28;20035;-89
2022/10/27 08:21:59;;;;;;;0.63;0.63;;;;;;;19.78;45.88;100665.47;5065785;28;20441;-88
2022/10/27 08:24:25;;;;;;;0.55;0.55;;;;;;;19.77;45.83;100666.53;5065894;28;20060;-89
2022/10/27 08:26:50;;;;;;;0.63;0.63;;;;;;;19.71;46.06;100667.47;5066457;28;20123;-89
2022/10/27 08:29:16;;;;;;;0.63;0.60;;;;;;;19.74;46.01;100666.16;5049120;28;20549;-88
2022/10/27 08:31:41;;;;;;;0.60;0.60;;;;;;;19.77;45.79;100668.44;5063241;28;20024;-88
2022/10/27 08:34:07;;;;;;;0.60;0.60;;;;;;;19.76;46.00;100659.47;5065946;28;20222;-88
2022/10/27 08:36:37;;;;;;;0.50;0.50;;;;;;;19.78;45.87;100661.94;5045959;28;20029;-89
2022/10/27 08:39:10;;;;;;;0.60;0.60;;;;;;;19.79;45.80;100669.00;5045618;28;20115;-89
2022/10/27 08:41:39;;;;;;;0.65;0.65;;;;;;;19.78;46.00;100659.22;5065883;28;20054;-88
2022/10/27 08:44:23;;;;;;;0.60;0.60;;;;;;;19.77;45.88;100663.00;5062023;28;20032;-88
2022/10/27 08:47:25;;;;;;;0.50;0.47;;;;;;;19.74;45.85;100661.59;5046649;28;20499;-88
2022/10/27 08:50:16;;;;;;;0.60;0.60;;;;;;;19.77;46.08;100668.44;5059331;28;20020;-89
2022/10/27 08:53:14;;;;;;;0.60;0.60;;;;;;;19.77;45.86;100661.13;5063672;28;20045;-89
2022/10/27 08:55:48;;;;;;;0.47;0.47;;;;;;;19.77;45.96;100663.00;5055558;28;20041;-88
2022/10/27 08:58:26;;;;;;;0.50;0.50;;;;;;;19.75;46.16;100652.41;5048421;28;20041;-88
2022/10/27 09:00:55;;;;;;;0.50;0.50;;;;;;;19.76;45.99;100645.09;5050184;28;20020;-88
2022/10/27 09:03:49;;;;;;;0.52;0.52;;;;;;;19.77;46.13;100654.88;5035035;28;20512;-88
2022/10/27 09:06:20;;;;;;;0.55;0.55;;;;;;;19.75;46.14;100651.56;5070264;28;20506;-88
2022/10/27 09:09:14;;;;;;;0.52;0.52;;;;;;;19.76;46.00;100650.50;5049930;28;20103;-88
2022/10/27 09:12:02;;;;;;;0.40;0.40;;;;;;;19.76;46.08;100634.25;5069066;28;20093;-88
2022/10/27 09:14:46;;;;;;;0.60;0.60;;;;;;;19.76;46.10;100632.34;5045872;28;20040;-88
2022/10/27 09:17:11;;;;;;;0.50;0.50;;;;;;;19.77;46.18;100633.19;5052872;28;20029;-88
2022/10/27 09:19:47;;;;;;;0.65;0.50;;;;;;;19.72;45.97;100636.59;5064356;28;20354;-89
2022/10/27 09:22:15;;;;;;;0.50;0.50;;;;;;;19.69;46.11;100626.22;5053223;28;20032;-88
2022/10/27 09:24:41;;;;;;;0.57;0.50;;;;;;;19.66;46.17;100640.25;5049679;28;20047;-88
2022/10/27 09:27:09;;;;;;;0.50;0.45;;;;;;;19.76;46.29;100645.91;5068222;28;20037;-88
2022/10/27 09:29:35;;;;;;;0.35;0.35;;;;;;;19.76;46.08;100647.78;5070215;28;20042;-88
2022/10/27 09:32:00;;;;;;;0.50;0.50;;;;;;;19.74;46.16;100644.47;5048826;28;20107;-88
2022/10/27 09:34:52;;;;;;;0.40;0.40;;;;;;;19.74;46.13;100639.06;5070261;28;20477;-88
2022/10/27 09:37:18;;;;;;;0.50;0.50;;;;;;;19.76;46.22;100642.38;5064990;28;20028;-88
2022/10/27 09:39:49;;;;;;;0.50;0.35;;;;;;;19.75;46.04;100636.13;5051273;28;20074;-88
2022/10/27 09:42:15;;;;;;;0.63;0.63;;;;;;;19.75;46.27;100656.97;5049210;28;20021;-88
2022/10/27 09:44:44;;;;;;;0.43;0.43;;;;;;;19.76;46.31;100650.50;5050133;28;20035;-88
2022/10/27 09:47:09;;;;;;;0.40;0.40;;;;;;;19.73;46.11;100646.38;5051423;28;20032;-88
2022/10/27 09:49:37;;;;;;;0.40;0.40;;;;;;;19.77;46.06;100641.31;5065532;28;20036;-88
2022/10/27 09:52:14;;;;;;;0.50;0.50;;;;;;;19.74;46.23;100633.63;5036023;28;20033;-89
2022/10/27 09:54:43;;;;;;;0.68;0.50;;;;;;;19.77;46.10;100641.31;5066052;28;20024;-88
2022/10/27 09:57:12;;;;;;;0.38;0.38;;;;;;;19.75;46.25;100635.28;5065798;28;20063;-88
2022/10/27 09:59:37;;;;;;;0.45;0.45;;;;;;;19.74;46.56;100636.34;5070502;28;20032;-88
2022/10/27 10:02:04;;;;;;;0.45;0.45;;;;;;;19.74;46.07;100628.22;5062328;28;20485;-88
2022/10/27 10:04:42;;;;;;;0.40;0.40;;;;;;;19.76;46.15;100634.25;5051718;28;20465;-88
2022/10/27 10:07:09;;;;;;;0.40;0.40;;;;;;;19.66;46.21;100616.69;5048781;28;20268;-88
2022/10/27 10:09:38;;;;;;;0.52;0.52;;;;;;;19.71;46.55;100626.78;5035517;28;20032;-88
2022/10/27 10:12:23;;;;;;;1.23;0.50;;;;;;;19.70;46.20;100636.81;5051624;28;20029;-89
2022/10/27 10:14:49;;;;;;;0.40;0.40;;;;;;;19.73;46.48;100631.97;5065992;28;20507;-88
2022/10/27 10:17:25;;;;;;;0.50;0.50;;;;;;;19.73;46.36;100631.97;5051501;28;20036;-89
2022/10/27 10:19:52;;;;;;;0.68;0.68;;;;;;;19.77;46.28;100641.31;5044296;28;20025;-88
2022/10/27 10:22:29;;;;;;;0.30;0.30;;;;;;;19.73;46.47;100634.69;5051911;28;20035;-89
2022/10/27 10:24:55;;;;;;;0.52;0.52;;;;;;;19.74;46.29;100630.91;5048703;28;20477;-89
2022/10/27 10:27:29;;;;;;;0.35;0.35;;;;;;;19.71;46.32;100621.38;5046747;28;20144;-88
2022/10/27 10:29:56;;;;;;;0.50;0.50;;;;;;;19.76;46.23;100634.25;5032111;28;20033;-89
2022/10/27 10:32:23;;;;;;;0.40;0.40;;;;;;;19.73;46.39;100648.25;5042275;28;20056;-89
2022/10/27 10:34:52;;;;;;;1.48;0.45;;;;;;;19.76;46.11;100639.66;5048192;28;20539;-88
2022/10/27 10:37:38;;;;;;;0.50;0.50;;;;;;;19.75;46.31;100633.41;5042049;28;20071;-88
2022/10/27 10:40:13;;;;;;;0.45;0.45;;;;;;;19.74;46.38;100633.63;5047347;28;20033;-89
2022/10/27 10:42:39;;;;;;;0.40;0.40;;;;;;;19.75;46.33;100635.28;5043050;28;20490;-89
2022/10/27 10:45:19;;;;;;;0.40;0.40;;;;;;;19.75;46.40;100652.41;5029498;28;20068;-88
2022/10/27 10:47:54;;;;;;;0.55;0.55;;;;;;;19.69;46.43;100645.19;5049357;28;20021;-88
2022/10/27 10:50:22;;;;;;;0.98;0.60;;;;;;;19.67;46.31;100645.44;5046223;28;20075;-88
2022/10/27 10:52:52;;;;;;;0.75;0.40;;;;;;;19.77;46.45;100660.31;5045867;28;20021;-88
2022/10/27 10:55:24;;;;;;;0.45;0.45;;;;;;;19.73;46.48;100659.09;5045804;28;20028;-88
2022/10/27 10:57:51;;;;;;;0.50;0.50;;;;;;;19.69;46.34;100645.19;5045861;28;20161;-89
2022/10/27 11:00:18;;;;;;;0.50;0.50;;;;;;;19.75;46.30;100641.56;5029809;28;20052;-89
2022/10/27 11:03:13;;;;;;;0.40;0.40;;;;;;;19.74;46.44;100634.47;5042920;28;20669;-89
2022/10/27 11:05:39;;;;;;;0.50;0.50;;;;;;;19.75;46.36;100625.28;5047511;28;20028;-88
2022/10/27 11:08:05;;;;;;;0.30;0.30;;;;;;;19.72;46.34;100625.72;5044211;28;20037;-89
2022/10/27 11:10:36;;;;;;;0.40;0.40;;;;;;;19.71;46.51;100632.22;5048107;28;20037;-89
2022/10/27 11:13:08;;;;;;;0.40;0.40;;;;;;;19.65;46.29;100625.88;5043137;28;20055;-89
2022/10/27 11:15:39;;;;;;;0.60;0.40;;;;;;;19.76;46.30;100642.38;5028542;28;20033;-88
2022/10/27 11:18:07;;;;;;;0.45;0.40;;;;;;;19.74;46.42;100639.06;5047727;28;20048;-88
2022/10/27 11:20:35;;;;;;;0.30;0.30;;;;;;;19.72;46.43;100636.59;5041703;28;20498;-89
2022/10/27 11:23:00;;;;;;;0.30;0.30;;;;;;;19.74;46.33;100639.06;5047870;28;20020;-89
2022/10/27 11:25:31;;;;;;;0.25;0.25;;;;;;;19.74;46.55;100641.78;5047156;28;20028;-89
2022/10/27 11:28:15;;;;;;;0.40;0.40;;;;;;;19.73;46.54;100640.94;5044809;28;20037;-89
2022/10/27 11:30:44;;;;;;;0.32;0.32;;;;;;;19.69;46.40;100632.44;5036861;28;20033;-89
2022/10/27 11:33:30;;;;;;;0.30;0.30;;;;;;;19.73;46.33;100631.97;5025729;28;20317;-88
2022/10/27 11:36:05;;;;;;;0.50;0.32;;;;;;;19.74;46.42;100622.78;5047209;28;20025;-88